Time;durP1;ratioP1;P1;durP2;ratioP2;P2;SDS_P1;SDS_P2;PMS_P1;PMS_P2;Temp;Humidity;BMP_temperature;BMP_pressure;BME280_temperature;BME280_humidity;BME280_pressure;Samples;Min_cycle;Max_cycle;Signal;HPM_P1;HPM_P2
2023/08/30 00:01:09;;;;;;;25.15;22.85;;;13.10;99.90;;;;;;7371999;19;20022;-66
2023/08/30 00:03:35;;;;;;;24.27;22.00;;;13.10;99.90;;;;;;7372375;19;20082;-62
2023/08/30 00:06:08;;;;;;;23.73;21.63;;;13.00;99.90;;;;;;7377872;19;20026;-66
2023/08/30 00:08:35;;;;;;;25.40;23.10;;;13.00;99.90;;;;;;7370701;19;20018;-62
2023/08/30 00:11:03;;;;;;;24.85;22.48;;;12.90;99.90;;;;;;7370991;19;20062;-66
2023/08/30 00:13:32;;;;;;;23.65;21.63;;;12.90;99.90;;;;;;7373560;19;20021;-65
2023/08/30 00:15:58;;;;;;;26.52;24.02;;;12.90;99.90;;;;;;7375234;19;20029;-65
2023/08/30 00:18:25;;;;;;;26.40;23.98;;;12.90;99.90;;;;;;7368034;19;20402;-66
2023/08/30 00:20:51;;;;;;;24.52;22.38;;;12.90;99.90;;;;;;7367419;19;20489;-65
2023/08/30 00:23:17;;;;;;;24.60;21.77;;;12.90;99.90;;;;;;7366887;19;20106;-65
2023/08/30 00:25:43;;;;;;;24.65;22.45;;;12.90;99.90;;;;;;7366882;19;20508;-66
2023/08/30 00:28:10;;;;;;;24.30;22.00;;;12.90;99.90;;;;;;7369712;19;20857;-66
2023/08/30 00:30:36;;;;;;;25.60;23.10;;;12.90;99.90;;;;;;7368988;19;20022;-66
2023/08/30 00:33:04;;;;;;;23.60;21.30;;;12.90;99.90;;;;;;7365441;19;20054;-66
2023/08/30 00:35:30;;;;;;;24.90;22.50;;;12.90;99.90;;;;;;7367078;19;20022;-66
2023/08/30 00:37:57;;;;;;;23.40;21.33;;;12.90;99.90;;;;;;7373156;19;20049;-65
2023/08/30 00:40:24;;;;;;;23.23;21.13;;;12.90;99.90;;;;;;7369457;19;20020;-64
2023/08/30 00:42:50;;;;;;;23.70;21.60;;;12.80;99.90;;;;;;7368021;19;20014;-65
2023/08/30 00:45:18;;;;;;;23.65;21.55;;;12.80;99.90;;;;;;7368632;19;20028;-65
2023/08/30 00:47:45;;;;;;;24.25;21.85;;;12.80;99.90;;;;;;7373794;19;20028;-65
2023/08/30 00:50:16;;;;;;;24.08;21.88;;;12.80;99.90;;;;;;7368093;19;20465;-65
2023/08/30 00:52:42;;;;;;;23.00;20.77;;;12.70;99.90;;;;;;7370890;19;20018;-64
2023/08/30 00:55:10;;;;;;;22.65;20.67;;;12.70;99.90;;;;;;7370680;19;20498;-65
2023/08/30 00:57:37;;;;;;;24.45;21.85;;;12.70;99.90;;;;;;7369120;19;20019;-65
2023/08/30 01:00:09;;;;;;;23.55;21.30;;;12.70;99.90;;;;;;7369011;19;20018;-65
2023/08/30 01:02:36;;;;;;;24.63;22.33;;;12.60;99.90;;;;;;7368155;19;20452;-64
2023/08/30 01:05:03;;;;;;;23.77;21.40;;;12.60;99.90;;;;;;7372247;19;20018;-64
2023/08/30 01:07:30;;;;;;;23.75;21.55;;;12.70;99.90;;;;;;7369734;19;20026;-64
2023/08/30 01:09:57;;;;;;;24.02;21.73;;;12.60;99.90;;;;;;7374227;19;20018;-64
2023/08/30 01:12:39;;;;;;;24.52;22.33;;;12.60;99.90;;;;;;7368880;19;20014;-64
2023/08/30 01:15:10;;;;;;;25.25;22.60;;;12.70;99.90;;;;;;7365643;19;20075;-64
2023/08/30 01:17:39;;;;;;;26.90;24.35;;;12.60;99.90;;;;;;7369436;19;20489;-60
2023/08/30 01:20:14;;;;;;;24.85;22.33;;;12.60;99.90;;;;;;7369119;19;20018;-60
2023/08/30 01:23:15;;;;;;;25.77;23.25;;;12.70;99.90;;;;;;7366873;19;20652;-61
2023/08/30 01:26:11;;;;;;;24.58;22.15;;;12.70;99.90;;;;;;7365423;19;20021;-62
2023/08/30 01:28:39;;;;;;;26.08;23.55;;;12.70;99.90;;;;;;7368197;19;20053;-60
2023/08/30 01:31:09;;;;;;;24.13;21.90;;;12.70;99.90;;;;;;7364342;19;20105;-61
2023/08/30 01:33:57;;;;;;;22.83;20.67;;;12.70;99.90;;;;;;7363751;19;20018;-61
2023/08/30 01:36:23;;;;;;;23.17;20.85;;;12.70;99.90;;;;;;7357172;19;20249;-62
2023/08/30 01:38:51;;;;;;;20.20;18.30;;;12.70;99.90;;;;;;7356330;19;20539;-61
2023/08/30 01:41:18;;;;;;;21.83;19.85;;;12.70;99.90;;;;;;7365347;19;20023;-61
2023/08/30 01:43:46;;;;;;;20.83;18.80;;;12.70;99.90;;;;;;7364861;19;20014;-61
2023/08/30 01:46:15;;;;;;;20.30;18.30;;;12.70;99.90;;;;;;7364304;19;20022;-61
2023/08/30 01:48:43;;;;;;;20.35;18.45;;;12.70;99.90;;;;;;7366231;19;20122;-62
2023/08/30 01:51:10;;;;;;;20.58;18.73;;;12.60;99.90;;;;;;7366165;19;20014;-63
2023/08/30 01:53:36;;;;;;;19.83;18.00;;;12.60;99.90;;;;;;7364742;19;20397;-66
2023/08/30 01:56:02;;;;;;;21.10;19.13;;;12.60;99.90;;;;;;7368583;19;20023;-65
2023/08/30 01:58:29;;;;;;;21.23;19.23;;;12.60;99.90;;;;;;7359602;19;20018;-66
2023/08/30 02:00:56;;;;;;;19.13;17.33;;;12.70;99.90;;;;;;7366725;19;20312;-66
2023/08/30 02:03:23;;;;;;;19.75;17.85;;;12.70;99.90;;;;;;7364064;19;20023;-66
2023/08/30 02:06:33;;;;;;;18.70;16.80;;;12.70;99.90;;;;;;7364552;19;20454;-66
2023/08/30 02:09:23;;;;;;;19.30;17.60;;;12.70;99.90;;;;;;7366039;19;20025;-65
2023/08/30 02:11:52;;;;;;;18.80;17.17;;;12.70;99.90;;;;;;7365186;19;20157;-66
2023/08/30 02:14:20;;;;;;;18.58;16.90;;;12.60;99.90;;;;;;7366422;19;20375;-66
2023/08/30 02:16:47;;;;;;;18.25;16.45;;;12.60;99.90;;;;;;7369881;19;20560;-66
2023/08/30 02:19:16;;;;;;;19.05;17.25;;;12.50;99.90;;;;;;7367581;19;20366;-66
2023/08/30 02:21:43;;;;;;;17.55;15.70;;;12.50;99.90;;;;;;7365410;19;20126;-66
2023/08/30 02:24:10;;;;;;;18.25;16.38;;;12.40;99.90;;;;;;7371801;19;20037;-62
2023/08/30 02:26:37;;;;;;;18.35;16.60;;;12.40;99.90;;;;;;7368537;19;20517;-62
2023/08/30 02:29:04;;;;;;;18.90;17.10;;;12.30;99.90;;;;;;7373031;19;20018;-61
2023/08/30 02:31:30;;;;;;;18.83;16.90;;;12.20;99.90;;;;;;7370462;19;20037;-61
2023/08/30 02:33:57;;;;;;;19.20;17.38;;;12.10;99.90;;;;;;7363881;19;20025;-63
2023/08/30 02:36:23;;;;;;;18.70;16.90;;;12.10;99.90;;;;;;7371655;19;20023;-61
2023/08/30 02:38:49;;;;;;;19.02;17.13;;;12.10;99.90;;;;;;7363463;19;20025;-62
2023/08/30 02:41:15;;;;;;;18.48;16.67;;;12.00;99.90;;;;;;7370354;19;20014;-62
2023/08/30 02:44:02;;;;;;;19.02;17.02;;;12.00;99.90;;;;;;7366867;19;20081;-61
2023/08/30 02:46:28;;;;;;;19.42;17.48;;;12.00;99.90;;;;;;7372704;19;20556;-62
2023/08/30 02:48:55;;;;;;;20.27;18.13;;;12.00;99.90;;;;;;7371563;19;20022;-62
2023/08/30 02:51:21;;;;;;;22.75;18.85;;;12.00;99.90;;;;;;7366734;19;20029;-62
2023/08/30 02:53:47;;;;;;;20.80;18.85;;;12.00;99.90;;;;;;7369391;19;20432;-62
2023/08/30 02:56:13;;;;;;;20.77;18.60;;;12.00;99.90;;;;;;7370498;19;20428;-62
2023/08/30 02:58:41;;;;;;;20.52;18.48;;;12.00;99.90;;;;;;7366032;19;20078;-66
2023/08/30 03:01:08;;;;;;;19.08;17.08;;;12.00;99.90;;;;;;7371172;19;20018;-66
2023/08/30 03:03:34;;;;;;;20.95;18.85;;;12.10;99.90;;;;;;7370158;19;20154;-64
2023/08/30 03:06:02;;;;;;;19.88;17.88;;;12.10;99.90;;;;;;7368841;19;20506;-65
2023/08/30 03:08:32;;;;;;;19.13;17.23;;;12.10;99.90;;;;;;7373370;19;20030;-65
2023/08/30 03:11:12;;;;;;;19.10;17.33;;;12.10;99.90;;;;;;7378508;19;20515;-65
2023/08/30 03:13:44;;;;;;;20.58;18.65;;;12.10;99.90;;;;;;7375367;19;20414;-65
2023/08/30 03:16:15;;;;;;;19.33;17.42;;;12.00;99.90;;;;;;7373665;19;20023;-65
2023/08/30 03:18:42;;;;;;;18.48;16.77;;;11.90;99.90;;;;;;7374339;19;20023;-66
2023/08/30 03:21:09;;;;;;;19.15;17.13;;;11.80;99.90;;;;;;7377163;19;20395;-64
2023/08/30 03:23:55;;;;;;;19.27;17.35;;;11.80;99.90;;;;;;7374042;19;20423;-64
2023/08/30 03:26:21;;;;;;;20.92;16.80;;;11.70;99.90;;;;;;7375143;19;20046;-65
2023/08/30 03:28:47;;;;;;;18.77;16.90;;;11.70;99.90;;;;;;7375732;19;20054;-65
2023/08/30 03:31:19;;;;;;;19.48;17.38;;;11.60;99.90;;;;;;7376485;19;20393;-65
2023/08/30 03:33:46;;;;;;;;;;;11.60;99.90;;;;;;7376269;19;20592;-65
2023/08/30 03:36:16;;;;;;;20.77;17.40;;;11.50;99.90;;;;;;7377607;19;19918;-61
2023/08/30 03:38:43;;;;;;;18.25;16.40;;;11.40;99.90;;;;;;7378411;19;20011;-65
2023/08/30 03:41:10;;;;;;;19.70;17.80;;;11.40;99.90;;;;;;7377540;19;20018;-65
2023/08/30 03:43:37;;;;;;;18.52;16.75;;;11.40;99.90;;;;;;7374160;19;20014;-65
2023/08/30 03:46:03;;;;;;;20.15;18.15;;;11.30;99.90;;;;;;7375399;19;20035;-65
2023/08/30 03:48:32;;;;;;;19.35;17.55;;;11.30;99.90;;;;;;7378087;19;20014;-65
2023/08/30 03:50:59;;;;;;;20.35;18.45;;;11.30;99.90;;;;;;7373393;19;20018;-65
2023/08/30 03:53:26;;;;;;;20.63;18.52;;;11.40;99.90;;;;;;7373214;19;20867;-65
2023/08/30 03:55:53;;;;;;;20.52;18.52;;;11.40;99.90;;;;;;7372787;19;20473;-62
2023/08/30 03:58:19;;;;;;;21.33;19.33;;;11.50;99.90;;;;;;7373994;19;20086;-61
2023/08/30 04:00:46;;;;;;;20.35;18.35;;;11.50;99.90;;;;;;7374739;19;20018;-65
2023/08/30 04:03:15;;;;;;;21.50;18.80;;;11.60;99.90;;;;;;7376446;19;20091;-65
2023/08/30 04:05:41;;;;;;;20.92;18.83;;;11.60;99.90;;;;;;7370253;19;20331;-66
2023/08/30 04:08:09;;;;;;;21.30;19.15;;;11.70;99.90;;;;;;7376271;19;20022;-66
2023/08/30 04:10:55;;;;;;;22.52;18.60;;;11.70;99.90;;;;;;7373406;19;20045;-67
2023/08/30 04:13:21;;;;;;;21.00;18.95;;;11.80;99.90;;;;;;7376281;19;20473;-66
2023/08/30 04:15:47;;;;;;;20.85;18.65;;;11.80;99.90;;;;;;7370600;19;20018;-66
2023/08/30 04:18:34;;;;;;;21.52;19.52;;;11.90;99.90;;;;;;7370215;19;21738;-66
2023/08/30 04:21:02;;;;;;;23.02;19.13;;;11.90;99.90;;;;;;7370882;19;20394;-66
2023/08/30 04:23:29;;;;;;;20.20;18.30;;;11.90;99.90;;;;;;7372543;19;20018;-62
2023/08/30 04:25:56;;;;;;;20.73;18.73;;;11.90;99.90;;;;;;7371638;19;20022;-66
2023/08/30 04:28:22;;;;;;;20.48;18.42;;;11.90;99.90;;;;;;7374141;19;20019;-66
2023/08/30 04:30:48;;;;;;;21.13;19.13;;;11.90;99.90;;;;;;7373454;19;20018;-66
2023/08/30 04:33:15;;;;;;;20.90;18.00;;;11.90;99.90;;;;;;7373749;19;20014;-66
2023/08/30 04:35:41;;;;;;;21.05;18.85;;;11.80;99.90;;;;;;7370945;19;20015;-66
2023/08/30 04:38:08;;;;;;;20.48;18.58;;;11.80;99.90;;;;;;7374023;19;20025;-66
2023/08/30 04:40:34;;;;;;;19.98;18.02;;;11.80;99.90;;;;;;7370510;19;20018;-65
2023/08/30 04:43:02;;;;;;;20.73;17.73;;;11.80;99.90;;;;;;7374761;19;20022;-66
2023/08/30 04:45:29;;;;;;;19.52;17.65;;;11.70;99.90;;;;;;7370479;19;20510;-66
2023/08/30 04:47:55;;;;;;;19.42;17.52;;;11.70;99.90;;;;;;7373357;19;20031;-66
2023/08/30 04:50:22;;;;;;;20.00;18.00;;;11.70;99.90;;;;;;7370469;19;20042;-66
2023/08/30 04:52:48;;;;;;;19.67;17.85;;;11.70;99.90;;;;;;7373915;19;20014;-61
2023/08/30 04:55:15;;;;;;;19.45;17.48;;;11.70;99.90;;;;;;7373221;19;20014;-62
2023/08/30 04:57:44;;;;;;;20.15;17.98;;;11.80;99.90;;;;;;7374046;19;20056;-62
2023/08/30 05:00:14;;;;;;;18.40;16.65;;;11.80;99.90;;;;;;7372848;19;20545;-62
2023/08/30 05:02:43;;;;;;;19.92;17.92;;;11.80;99.90;;;;;;7374484;19;20457;-62
2023/08/30 05:05:11;;;;;;;18.65;16.77;;;11.90;99.90;;;;;;7372137;19;20019;-61
2023/08/30 05:07:37;;;;;;;19.15;17.25;;;11.90;99.90;;;;;;7372587;19;20019;-61
2023/08/30 05:10:05;;;;;;;20.70;18.50;;;12.00;99.90;;;;;;7375099;19;20074;-62
2023/08/30 05:12:34;;;;;;;19.73;17.70;;;12.10;99.90;;;;;;7374491;19;20019;-61
2023/08/30 05:15:00;;;;;;;18.98;17.08;;;12.10;99.90;;;;;;7368895;19;20022;-62
2023/08/30 05:17:30;;;;;;;18.98;17.02;;;12.10;99.90;;;;;;7367483;19;20082;-61
2023/08/30 05:19:57;;;;;;;20.05;17.88;;;12.20;99.90;;;;;;7369536;19;20379;-61
2023/08/30 05:22:23;;;;;;;18.60;16.70;;;12.20;99.90;;;;;;7369456;19;20624;-61
2023/08/30 05:24:50;;;;;;;20.02;18.15;;;12.20;99.90;;;;;;7368088;19;20018;-62
2023/08/30 05:27:17;;;;;;;18.35;16.48;;;12.30;99.90;;;;;;7369290;19;20046;-61
2023/08/30 05:29:44;;;;;;;17.65;15.95;;;12.40;99.90;;;;;;7370710;19;20018;-61
2023/08/30 05:32:10;;;;;;;19.17;17.15;;;12.40;99.90;;;;;;7369760;19;20029;-64
2023/08/30 05:35:15;;;;;;;19.13;17.20;;;12.50;99.90;;;;;;7369727;19;20062;-62
2023/08/30 05:37:47;;;;;;;19.48;16.42;;;12.50;99.90;;;;;;7364053;19;20055;-61
2023/08/30 05:40:43;;;;;;;17.30;15.63;;;12.60;99.90;;;;;;7366501;19;20018;-63
2023/08/30 05:43:09;;;;;;;16.80;15.07;;;12.60;99.90;;;;;;7368034;19;20019;-67
2023/08/30 05:46:01;;;;;;;17.35;15.65;;;12.60;99.90;;;;;;7368096;19;20018;-61
2023/08/30 05:48:27;;;;;;;16.58;14.95;;;12.70;99.90;;;;;;7368669;19;20015;-62
2023/08/30 05:51:13;;;;;;;17.75;15.75;;;12.70;99.90;;;;;;7363809;19;20022;-62
2023/08/30 05:53:39;;;;;;;17.38;15.70;;;12.80;99.90;;;;;;7365673;19;20014;-62
2023/08/30 05:56:06;;;;;;;17.48;15.23;;;12.80;99.90;;;;;;7368819;19;20090;-60
2023/08/30 05:58:32;;;;;;;16.77;15.18;;;12.90;99.90;;;;;;7367732;19;20872;-67
2023/08/30 06:01:19;;;;;;;17.80;15.95;;;12.90;99.90;;;;;;7370209;19;20018;-66
2023/08/30 06:03:46;;;;;;;17.15;15.45;;;12.90;99.90;;;;;;7368456;19;20359;-66
2023/08/30 06:06:14;;;;;;;17.75;15.85;;;12.90;99.90;;;;;;7368303;19;20453;-67
2023/08/30 06:08:40;;;;;;;17.27;15.52;;;13.00;99.90;;;;;;7368024;19;20107;-61
2023/08/30 06:11:26;;;;;;;17.83;16.13;;;13.00;99.90;;;;;;7363114;19;20610;-61
2023/08/30 06:13:52;;;;;;;17.88;15.27;;;13.10;99.90;;;;;;7366897;19;20014;-64
2023/08/30 06:16:18;;;;;;;18.30;15.60;;;13.10;99.90;;;;;;7362520;19;20048;-62
2023/08/30 06:18:45;;;;;;;18.42;16.52;;;13.10;99.90;;;;;;7369777;19;20014;-62
2023/08/30 06:21:11;;;;;;;18.52;15.10;;;13.20;99.90;;;;;;7366130;19;20045;-61
2023/08/30 06:23:38;;;;;;;16.73;14.68;;;13.20;99.90;;;;;;7369558;19;20022;-62
2023/08/30 06:26:04;;;;;;;19.05;17.02;;;13.20;99.90;;;;;;7365052;19;20019;-61
2023/08/30 06:28:30;;;;;;;18.95;15.68;;;13.30;99.90;;;;;;7367331;19;20014;-62
2023/08/30 06:30:57;;;;;;;16.80;15.00;;;13.30;99.90;;;;;;7367026;19;20056;-61
2023/08/30 06:33:24;;;;;;;16.58;14.50;;;13.40;99.90;;;;;;7366814;19;20112;-62
2023/08/30 06:35:53;;;;;;;17.02;14.98;;;13.50;99.90;;;;;;7364663;19;21053;-61
2023/08/30 06:38:20;;;;;;;18.35;15.35;;;13.60;99.90;;;;;;7368416;19;20546;-61
2023/08/30 06:40:46;;;;;;;16.73;14.98;;;13.60;99.90;;;;;;7365254;19;20388;-62
2023/08/30 06:43:13;;;;;;;19.40;15.32;;;13.70;99.90;;;;;;7362203;19;20587;-62
2023/08/30 06:45:39;;;;;;;20.42;17.98;;;13.80;99.90;;;;;;7373235;19;20030;-62
2023/08/30 06:48:07;;;;;;;17.52;15.75;;;13.90;99.90;;;;;;7370852;19;20038;-66
2023/08/30 06:50:34;;;;;;;17.80;15.85;;;13.80;99.90;;;;;;7376987;19;20484;-61
2023/08/30 06:53:02;;;;;;;19.27;15.57;;;14.00;99.90;;;;;;7373402;19;20419;-65
2023/08/30 06:55:28;;;;;;;16.65;14.95;;;14.00;99.90;;;;;;7375100;19;20383;-66
2023/08/30 06:57:55;;;;;;;17.15;15.32;;;14.10;99.90;;;;;;7370770;19;20018;-66
2023/08/30 07:00:21;;;;;;;17.98;16.08;;;14.10;99.90;;;;;;7372147;19;20019;-66
2023/08/30 07:02:47;;;;;;;16.92;14.93;;;14.10;99.90;;;;;;7373782;19;20078;-62
2023/08/30 07:05:14;;;;;;;18.25;16.35;;;14.10;99.90;;;;;;7366957;19;20015;-62
2023/08/30 07:07:41;;;;;;;17.60;15.80;;;14.10;99.90;;;;;;7374886;19;20015;-61
2023/08/30 07:10:08;;;;;;;17.92;15.43;;;14.10;99.90;;;;;;7373025;19;20122;-62
2023/08/30 07:12:35;;;;;;;16.05;14.45;;;14.10;99.90;;;;;;7374932;19;20464;-66
2023/08/30 07:15:03;;;;;;;17.13;15.55;;;14.10;99.90;;;;;;7372833;19;20015;-63
2023/08/30 07:17:30;;;;;;;18.55;14.88;;;14.20;99.90;;;;;;7373201;19;20479;-62
2023/08/30 07:19:56;;;;;;;17.45;14.65;;;14.20;99.90;;;;;;7373487;19;20019;-62
2023/08/30 07:22:22;;;;;;;16.35;14.77;;;14.30;99.90;;;;;;7367420;19;20037;-60
2023/08/30 07:25:10;;;;;;;18.10;16.13;;;14.40;99.90;;;;;;7370290;19;20059;-61
2023/08/30 07:27:37;;;;;;;16.90;14.98;;;14.50;99.90;;;;;;7375941;19;20727;-60
2023/08/30 07:30:04;;;;;;;18.08;15.55;;;14.80;99.90;;;;;;7373344;19;20607;-61
2023/08/30 07:32:50;;;;;;;16.27;14.43;;;15.00;99.90;;;;;;7369435;19;20407;-63
2023/08/30 07:35:36;;;;;;;19.63;17.38;;;15.40;99.90;;;;;;7372895;19;20026;-61
2023/08/30 07:38:03;;;;;;;17.27;15.48;;;15.60;99.90;;;;;;7370298;19;20462;-61
2023/08/30 07:40:30;;;;;;;15.52;14.02;;;15.70;99.90;;;;;;7373311;19;20018;-60
2023/08/30 07:42:57;;;;;;;16.88;15.07;;;16.00;99.90;;;;;;7373400;19;20029;-62
2023/08/30 07:45:23;;;;;;;16.25;14.15;;;16.30;99.90;;;;;;7368120;19;20024;-61
2023/08/30 07:47:49;;;;;;;17.10;15.40;;;16.60;99.90;;;;;;7365745;19;20019;-62
2023/08/30 07:50:16;;;;;;;14.95;13.40;;;17.10;99.90;;;;;;7374144;19;20035;-62
2023/08/30 07:52:42;;;;;;;15.40;13.80;;;17.60;99.90;;;;;;7376954;19;20028;-62
2023/08/30 07:55:09;;;;;;;16.20;14.50;;;18.10;99.90;;;;;;7370937;19;20338;-62
2023/08/30 07:57:35;;;;;;;15.55;14.05;;;18.40;99.90;;;;;;7374569;19;20018;-62
2023/08/30 08:00:03;;;;;;;16.20;14.38;;;18.90;99.90;;;;;;7366816;19;20026;-61
2023/08/30 08:02:39;;;;;;;16.20;14.50;;;19.20;99.90;;;;;;7373932;19;20833;-62
2023/08/30 08:05:05;;;;;;;15.18;13.68;;;18.90;99.90;;;;;;7365131;19;20612;-62
2023/08/30 08:07:31;;;;;;;15.00;13.48;;;18.60;99.90;;;;;;7373569;19;20030;-61
2023/08/30 08:09:59;;;;;;;18.00;14.13;;;18.40;99.90;;;;;;7369538;19;20019;-62
2023/08/30 08:12:26;;;;;;;16.80;13.93;;;18.10;99.90;;;;;;7371630;19;20026;-61
2023/08/30 08:14:52;;;;;;;15.73;14.13;;;18.00;99.90;;;;;;7369697;19;20437;-61
2023/08/30 08:17:19;;;;;;;13.98;12.50;;;17.80;99.90;;;;;;7367271;19;20019;-61
2023/08/30 08:19:45;;;;;;;14.57;13.07;;;17.70;99.90;;;;;;7370339;19;20038;-60
2023/08/30 08:22:11;;;;;;;14.05;12.52;;;17.60;99.90;;;;;;7371280;19;20033;-61
2023/08/30 08:24:37;;;;;;;15.30;13.27;;;17.40;99.90;;;;;;7369600;19;20025;-61
2023/08/30 08:27:27;;;;;;;13.95;12.52;;;17.20;99.90;;;;;;7367620;19;20130;-61
2023/08/30 08:29:53;;;;;;;15.40;13.68;;;17.10;99.90;;;;;;7367673;19;20022;-61
2023/08/30 08:32:20;;;;;;;15.68;14.05;;;17.00;99.90;;;;;;7365819;19;20497;-62
2023/08/30 08:34:46;;;;;;;15.63;14.02;;;17.00;99.90;;;;;;7366181;19;20111;-62
2023/08/30 08:37:13;;;;;;;14.30;12.80;;;17.00;99.90;;;;;;7368086;19;20473;-61
2023/08/30 08:39:39;;;;;;;14.70;12.57;;;17.10;99.90;;;;;;7367154;19;20018;-70
2023/08/30 08:42:06;;;;;;;14.20;12.20;;;17.10;99.90;;;;;;7363040;19;20031;-69
2023/08/30 08:44:33;;;;;;;14.82;13.30;;;17.20;99.90;;;;;;7363769;19;20026;-62
2023/08/30 08:47:02;;;;;;;21.13;19.00;;;17.30;99.90;;;;;;7364816;19;20370;-61
2023/08/30 08:49:31;;;;;;;15.10;13.50;;;17.20;99.90;;;;;;7365593;19;20075;-69
2023/08/30 08:52:18;;;;;;;13.93;12.32;;;17.20;99.90;;;;;;7365054;19;20007;-69
2023/08/30 08:54:45;;;;;;;14.65;13.25;;;17.10;99.90;;;;;;7364439;19;21177;-70
2023/08/30 08:57:12;;;;;;;14.65;13.20;;;17.00;99.90;;;;;;7371193;19;20117;-69
2023/08/30 08:59:38;;;;;;;15.23;13.18;;;16.90;99.90;;;;;;7369618;19;20065;-69
2023/08/30 09:02:05;;;;;;;14.80;13.00;;;16.80;99.90;;;;;;7365692;19;20022;-69
2023/08/30 09:04:32;;;;;;;15.07;13.43;;;16.60;99.90;;;;;;7369096;19;20078;-70
2023/08/30 09:07:02;;;;;;;17.65;12.55;;;16.50;99.90;;;;;;7364397;19;20109;-70
2023/08/30 09:09:28;;;;;;;14.40;12.57;;;16.50;99.90;;;;;;7368137;19;20041;-70
2023/08/30 09:11:58;;;;;;;15.40;13.80;;;16.50;99.90;;;;;;7367464;19;20078;-70
2023/08/30 09:14:24;;;;;;;15.02;13.40;;;16.40;99.90;;;;;;7371382;19;20374;-70
2023/08/30 09:17:02;;;;;;;15.18;13.57;;;16.20;99.90;;;;;;7369085;19;20018;-70
2023/08/30 09:19:31;;;;;;;15.80;13.82;;;16.20;99.90;;;;;;7369640;19;20014;-69
2023/08/30 09:21:59;;;;;;;15.57;13.70;;;16.10;99.90;;;;;;7365482;19;20672;-63
2023/08/30 09:24:26;;;;;;;17.48;15.68;;;16.00;99.90;;;;;;7362945;19;20039;-60
2023/08/30 09:26:54;;;;;;;15.95;13.98;;;16.00;99.90;;;;;;7367578;19;20022;-61
2023/08/30 09:29:21;;;;;;;21.85;15.50;;;15.80;99.90;;;;;;7370185;19;20018;-61
2023/08/30 09:31:54;;;;;;;16.40;14.63;;;15.70;99.90;;;;;;7364614;19;20089;-60
2023/08/30 09:34:27;;;;;;;18.00;15.43;;;15.60;99.90;;;;;;7365169;19;20018;-60
2023/08/30 09:36:54;;;;;;;18.73;16.02;;;15.50;99.90;;;;;;7365644;19;20453;-60
2023/08/30 09:39:21;;;;;;;17.65;15.85;;;15.50;99.90;;;;;;7368201;19;20520;-61
2023/08/30 09:41:49;;;;;;;17.52;15.45;;;15.40;99.90;;;;;;7363212;19;20018;-59
2023/08/30 09:44:24;;;;;;;18.80;15.07;;;15.40;99.90;;;;;;7370338;19;20030;-62
2023/08/30 09:46:55;;;;;;;19.67;17.17;;;15.30;99.90;;;;;;7361708;19;20457;-61
2023/08/30 09:49:26;;;;;;;20.45;18.00;;;15.30;99.90;;;;;;7364184;19;20540;-60
2023/08/30 09:51:54;;;;;;;19.85;17.73;;;15.30;99.90;;;;;;7359576;19;20037;-60
2023/08/30 09:54:25;;;;;;;20.90;18.90;;;15.30;99.90;;;;;;7368835;19;20014;-60
2023/08/30 09:56:57;;;;;;;;;;;15.30;99.90;;;;;;7365567;19;20649;-59
2023/08/30 09:59:24;;;;;;;21.65;19.30;;;15.40;99.90;;;;;;7363365;19;19923;-60
2023/08/30 10:01:53;;;;;;;21.27;19.17;;;15.50;99.90;;;;;;7369129;19;20473;-60
2023/08/30 10:04:20;;;;;;;22.42;19.52;;;15.50;99.90;;;;;;7366863;19;20019;-60
2023/08/30 10:06:47;;;;;;;23.08;20.70;;;15.70;99.90;;;;;;7368143;19;20695;-61
2023/08/30 10:09:15;;;;;;;21.02;18.83;;;15.80;99.90;;;;;;7366701;19;20019;-60
2023/08/30 10:11:42;;;;;;;19.42;17.02;;;15.90;99.90;;;;;;7367129;19;20029;-59
2023/08/30 10:14:10;;;;;;;19.02;17.10;;;16.00;99.90;;;;;;7370407;19;20104;-60
2023/08/30 10:16:49;;;;;;;23.95;18.15;;;16.10;99.90;;;;;;7362298;19;20014;-67
2023/08/30 10:19:24;;;;;;;20.13;16.52;;;16.30;99.90;;;;;;7365429;19;20025;-69
2023/08/30 10:22:08;;;;;;;18.08;16.23;;;16.30;99.90;;;;;;7363425;19;20098;-67
2023/08/30 10:25:04;;;;;;;20.35;17.70;;;16.40;99.90;;;;;;7362835;19;20464;-60
2023/08/30 10:27:36;;;;;;;18.63;16.73;;;16.50;99.90;;;;;;7367637;19;20021;-60
2023/08/30 10:30:05;;;;;;;18.63;16.70;;;16.70;99.90;;;;;;7362706;19;20024;-60
2023/08/30 10:32:31;;;;;;;16.98;14.80;;;16.80;99.90;;;;;;7368388;19;20046;-60
2023/08/30 10:35:03;;;;;;;16.70;15.00;;;16.80;99.90;;;;;;7364390;19;20015;-59
2023/08/30 10:37:30;;;;;;;11.55;10.40;;;16.70;99.90;;;;;;7360843;19;20038;-59
2023/08/30 10:40:03;;;;;;;11.63;9.50;;;16.60;99.90;;;;;;7370042;19;20018;-59
2023/08/30 10:42:32;;;;;;;11.75;10.27;;;16.50;99.90;;;;;;7369537;19;20050;-60
2023/08/30 10:45:04;;;;;;;12.25;10.50;;;16.40;99.90;;;;;;7367131;19;20022;-61
2023/08/30 10:47:35;;;;;;;13.15;11.27;;;16.30;99.90;;;;;;7367335;19;20470;-60
2023/08/30 10:50:06;;;;;;;16.55;14.93;;;16.30;99.90;;;;;;7364040;19;20494;-60
2023/08/30 10:52:32;;;;;;;14.15;11.30;;;16.20;99.90;;;;;;7364717;19;20060;-60
2023/08/30 10:55:14;;;;;;;12.25;10.90;;;16.00;99.90;;;;;;7363812;19;20054;-60
2023/08/30 10:58:06;;;;;;;12.68;11.32;;;15.90;99.90;;;;;;7366531;19;20369;-60
2023/08/30 11:00:54;;;;;;;12.27;10.95;;;15.80;99.90;;;;;;7366024;19;20034;-60
2023/08/30 11:03:21;;;;;;;11.23;9.93;;;15.80;99.90;;;;;;7365868;19;20216;-60
2023/08/30 11:05:49;;;;;;;12.23;11.02;;;15.70;99.90;;;;;;7361549;19;20611;-60
2023/08/30 11:08:16;;;;;;;12.63;11.13;;;15.60;99.90;;;;;;7362787;19;20025;-60
2023/08/30 11:10:42;;;;;;;13.18;11.15;;;15.60;99.90;;;;;;7362032;19;20035;-61
2023/08/30 11:13:09;;;;;;;12.52;10.90;;;15.50;99.90;;;;;;7364476;19;20029;-61
2023/08/30 11:15:36;;;;;;;13.00;10.85;;;15.50;99.90;;;;;;7357879;19;20693;-60
2023/08/30 11:18:03;;;;;;;12.95;11.75;;;15.40;99.90;;;;;;7363123;19;20422;-60
2023/08/30 11:20:30;;;;;;;14.38;12.65;;;15.50;99.90;;;;;;7367051;19;20018;-68
2023/08/30 11:23:16;;;;;;;16.05;12.82;;;15.50;99.90;;;;;;7366242;19;20411;-68
2023/08/30 11:25:42;;;;;;;14.18;12.77;;;15.60;99.90;;;;;;7362913;19;20033;-68
2023/08/30 11:28:08;;;;;;;16.13;13.23;;;15.60;99.90;;;;;;7365477;19;20591;-71
2023/08/30 11:30:40;;;;;;;14.85;13.32;;;15.50;99.90;;;;;;7371986;19;20562;-68
2023/08/30 11:33:06;;;;;;;;;;;15.50;99.90;;;;;;7370519;19;20039;-68
2023/08/30 11:35:32;;;;;;;15.98;14.27;;;15.60;99.90;;;;;;7373470;19;20361;-65
2023/08/30 11:37:59;;;;;;;15.63;14.10;;;15.60;99.90;;;;;;7367008;19;20342;-68
2023/08/30 11:40:27;;;;;;;266.08;241.45;;;15.60;99.90;;;;;;7373508;19;20655;-70
2023/08/30 11:43:15;;;;;;;48.53;43.40;;;15.70;99.90;;;;;;7369614;19;20433;-71
2023/08/30 11:46:03;;;;;;;19.45;17.58;;;15.90;99.90;;;;;;7365159;19;20015;-67
2023/08/30 11:48:32;;;;;;;16.75;15.02;;;15.90;99.90;;;;;;7376427;19;20018;-72
2023/08/30 11:50:59;;;;;;;17.55;15.57;;;15.90;99.90;;;;;;7377922;19;20496;-70
2023/08/30 11:53:26;;;;;;;14.85;13.15;;;15.90;99.90;;;;;;7373372;19;20604;-66
2023/08/30 11:55:53;;;;;;;13.77;12.48;;;16.00;99.90;;;;;;7376578;19;20032;-71
2023/08/30 11:58:20;;;;;;;14.63;13.23;;;15.90;99.90;;;;;;7363828;19;20023;-71
2023/08/30 12:00:50;;;;;;;13.88;12.50;;;16.10;99.90;;;;;;7374259;19;20358;-68
2023/08/30 12:03:16;;;;;;;14.48;13.00;;;16.10;99.90;;;;;;7366064;19;20022;-72
2023/08/30 12:05:47;;;;;;;46.13;41.33;;;16.00;99.90;;;;;;7368829;19;20018;-69
2023/08/30 12:08:25;;;;;;;19.50;17.33;;;15.90;99.90;;;;;;7368651;19;20014;-72
2023/08/30 12:10:52;;;;;;;16.17;14.45;;;15.90;99.90;;;;;;7366739;19;20026;-73
2023/08/30 12:13:28;;;;;;;16.38;14.77;;;15.90;99.90;;;;;;7363633;19;20019;-73
2023/08/30 12:15:59;;;;;;;15.00;13.50;;;15.90;99.90;;;;;;7365122;19;20017;-73
2023/08/30 12:18:32;;;;;;;14.02;12.65;;;16.00;99.90;;;;;;7366331;19;20022;-73
2023/08/30 12:21:01;;;;;;;13.90;12.50;;;15.90;99.90;;;;;;7365133;19;21270;-66
2023/08/30 12:23:29;;;;;;;20.13;17.98;;;15.90;99.90;;;;;;7353445;19;20014;-65
2023/08/30 12:26:01;;;;;;;14.55;13.07;;;16.00;99.90;;;;;;7361654;19;20022;-66
2023/08/30 12:28:29;;;;;;;72.50;64.32;;;16.10;99.90;;;;;;7376527;19;20460;-67
2023/08/30 12:30:56;;;;;;;12.00;10.80;;;16.10;99.90;;;;;;7385777;19;20034;-66
2023/08/30 12:33:25;;;;;;;10.48;9.40;;;16.10;99.90;;;;;;7380734;19;20014;-67
2023/08/30 12:35:52;;;;;;;10.57;9.52;;;16.20;99.90;;;;;;7385637;19;20114;-61
2023/08/30 12:38:19;;;;;;;9.57;8.55;;;16.20;99.90;;;;;;7377054;19;20022;-66
2023/08/30 12:40:49;;;;;;;9.52;8.65;;;16.20;99.90;;;;;;7365483;19;20015;-60